Time;durP1;ratioP1;P1;durP2;ratioP2;P2;SDS_P1;SDS_P2;PMS_P1;PMS_P2;Temp;Humidity;BMP_temperature;BMP_pressure;BME280_temperature;BME280_humidity;BME280_pressure;Samples;Min_cycle;Max_cycle;Signal;HPM_P1;HPM_P2
2023/04/03 00:01:03;;;;;;;;;;;;;;;-142.25;100.00;58004.16;4914017;29;20853;-63
2023/04/03 00:03:28;;;;;;;;;;;;;;;-142.25;100.00;58004.16;4912532;29;19934;-65
2023/04/03 00:05:54;;;;;;;;;;;;;;;-142.25;100.00;58004.16;4922167;28;19998;-64
2023/04/03 00:08:20;;;;;;;;;;;;;;;-142.25;100.00;58004.16;4914187;29;19928;-63
2023/04/03 00:10:45;;;;;;;;;;;;;;;-142.25;100.00;58004.16;4913996;29;19952;-63
2023/04/03 00:13:11;;;;;;;;;;;;;;;-142.25;100.00;58004.16;4913100;29;19927;-63
2023/04/03 00:15:37;;;;;;;;;;;;;;;-142.25;100.00;58004.16;4928728;29;20469;-63
2023/04/03 00:18:03;;;;;;;;;;;;;;;-142.25;100.00;58004.16;4914788;29;19930;-63
2023/04/03 00:20:29;;;;;;;;;;;;;;;-142.25;100.00;58004.16;4915509;29;19926;-64
2023/04/03 00:22:54;;;;;;;;;;;;;;;-142.25;100.00;58004.16;4912389;29;19987;-64
2023/04/03 00:25:20;;;;;;;;;;;;;;;-142.25;100.00;58004.16;4914966;29;19954;-63
2023/04/03 00:27:46;;;;;;;;;;;;;;;-142.25;100.00;58004.16;4913357;29;20381;-64
2023/04/03 00:30:13;;;;;;;;;;;;;;;-142.25;100.00;58004.16;4914616;29;19938;-64
2023/04/03 00:32:39;;;;;;;;;;;;;;;-142.25;100.00;58004.16;4915070;29;19953;-64
2023/04/03 00:35:05;;;;;;;;;;;;;;;-142.25;100.00;58004.16;4914713;29;20714;-64
2023/04/03 00:37:31;;;;;;;;;;;;;;;-142.25;100.00;58004.16;4913774;29;19934;-64
2023/04/03 00:39:56;;;;;;;;;;;;;;;-142.25;100.00;58004.16;4914281;29;19927;-64
2023/04/03 00:42:22;;;;;;;;;;;;;;;-142.25;100.00;58004.16;4914956;29;20374;-64
2023/04/03 00:44:47;;;;;;;;;;;;;;;-142.25;100.00;58004.16;4914682;29;19985;-63
2023/04/03 00:47:15;;;;;;;;;;;;;;;-142.25;100.00;58004.16;4914994;29;20506;-64
2023/04/03 00:49:42;;;;;;;;;;;;;;;-142.25;100.00;58004.16;4922201;29;20033;-64
2023/04/03 00:52:09;;;;;;;;;;;;;;;-142.25;100.00;58004.16;4922461;29;19962;-64
2023/04/03 00:54:36;;;;;;;;;;;;;;;-142.25;100.00;58004.16;4912318;29;20444;-64
2023/04/03 00:57:03;;;;;;;;;;;;;;;-142.25;100.00;58004.16;4914256;29;20095;-64
2023/04/03 00:59:31;;;;;;;;;;;;;;;-142.25;100.00;58004.16;4914439;29;19933;-64
2023/04/03 01:01:58;;;;;;;;;;;;;;;-142.25;100.00;58004.16;4914159;28;19922;-64
2023/04/03 01:04:35;;;;;;;;;;;;;;;-142.25;100.00;58004.16;4914804;29;19927;-64
2023/04/03 01:07:05;;;;;;;;;;;;;;;-142.25;100.00;58004.16;4914910;29;19965;-65
2023/04/03 01:09:31;;;;;;;;;;;;;;;-142.25;100.00;58004.16;4913180;29;19922;-65
2023/04/03 01:12:18;;;;;;;;;;;;;;;-142.25;100.00;58004.16;4914565;29;20925;-66
2023/04/03 01:14:46;;;;;;;;;;;;;;;-142.25;100.00;58004.16;4930601;29;20021;-64
2023/04/03 01:17:30;;;;;;;;;;;;;;;-142.25;100.00;58004.16;4929717;29;19922;-65
2023/04/03 01:20:16;;;;;;;;;;;;;;;-142.25;100.00;58004.16;4928512;29;19933;-65
2023/04/03 01:22:48;;;;;;;;;;;;;;;-142.25;100.00;58004.16;4914197;29;19923;-64
2023/04/03 01:25:14;;;;;;;;;;;;;;;-142.25;100.00;58004.16;4914319;29;19934;-65
2023/04/03 01:27:40;;;;;;;;;;;;;;;-142.25;100.00;58004.16;4913723;29;19927;-64
2023/04/03 01:30:06;;;;;;;;;;;;;;;-142.25;100.00;58004.16;4913380;29;20562;-66
2023/04/03 01:32:32;;;;;;;;;;;;;;;-142.25;100.00;58004.16;4911275;29;19933;-65
2023/04/03 01:34:57;;;;;;;;;;;;;;;-142.25;100.00;58004.16;4912787;29;19927;-66
2023/04/03 01:37:23;;;;;;;;;;;;;;;-142.25;100.00;58004.16;4913420;29;20578;-64
2023/04/03 01:39:49;;;;;;;;;;;;;;;-142.25;100.00;58004.16;4912650;29;19926;-64
2023/04/03 01:42:16;;;;;;;;;;;;;;;-142.25;100.00;58004.16;4913663;29;19935;-64
2023/04/03 01:44:43;;;;;;;;;;;;;;;-142.25;100.00;58004.16;4927864;29;20045;-65
2023/04/03 01:47:09;;;;;;;;;;;;;;;-142.25;100.00;58004.16;4914952;29;20322;-65
2023/04/03 01:49:36;;;;;;;;;;;;;;;-142.25;100.00;58004.16;4928194;29;20050;-65
2023/04/03 01:52:01;;;;;;;;;;;;;;;-142.25;100.00;58004.16;4912962;29;19943;-65
2023/04/03 01:54:27;;;;;;;;;;;;;;;-142.25;100.00;58004.16;4924858;28;20282;-65
2023/04/03 01:56:52;;;;;;;;;;;;;;;-142.25;100.00;58004.16;4909797;29;20298;-65
2023/04/03 01:59:19;;;;;;;;;;;;;;;-142.25;100.00;58004.16;4910106;29;19926;-64
2023/04/03 02:01:45;;;;;;;;;;;;;;;-142.25;100.00;58004.16;4895597;29;19933;-65
2023/04/03 02:04:11;;;;;;;;;;;;;;;-142.25;100.00;58004.16;4911816;29;20382;-64
2023/04/03 02:06:40;;;;;;;;;;;;;;;-142.25;100.00;58004.16;4914558;29;19934;-65
2023/04/03 02:09:05;;;;;;;;;;;;;;;-142.25;100.00;58004.16;4913963;29;20373;-65
2023/04/03 02:11:31;;;;;;;;;;;;;;;-142.25;100.00;58004.16;4913595;29;20483;-65
2023/04/03 02:13:57;;;;;;;;;;;;;;;-142.25;100.00;58004.16;4893214;29;20235;-65
2023/04/03 02:16:23;;;;;;;;;;;;;;;-142.25;100.00;58004.16;4911231;29;20002;-65
2023/04/03 02:18:49;;;;;;;;;;;;;;;-142.25;100.00;58004.16;4913347;29;20293;-65
2023/04/03 02:21:15;;;;;;;;;;;;;;;-142.25;100.00;58004.16;4928233;29;19934;-64
2023/04/03 02:23:41;;;;;;;;;;;;;;;-142.25;100.00;58004.16;4917234;29;20072;-63
2023/04/03 02:26:11;;;;;;;;;;;;;;;-142.25;100.00;58004.16;4915073;29;19937;-63
2023/04/03 02:28:37;;;;;;;;;;;;;;;-142.25;100.00;58004.16;4913370;28;19923;-64
2023/04/03 02:31:03;;;;;;;;;;;;;;;-142.25;100.00;58004.16;4918419;29;20431;-66
2023/04/03 02:33:30;;;;;;;;;;;;;;;-142.25;100.00;58004.16;4916643;29;19922;-64
2023/04/03 02:35:56;;;;;;;;;;;;;;;-142.25;100.00;58004.16;4918654;29;19938;-64
2023/04/03 02:38:22;;;;;;;;;;;;;;;-142.25;100.00;58004.16;4930951;29;19923;-64
2023/04/03 02:40:48;;;;;;;;;;;;;;;-142.25;100.00;58004.16;4919391;29;19926;-64
2023/04/03 02:43:13;;;;;;;;;;;;;;;-142.25;100.00;58004.16;4916109;29;19923;-64
2023/04/03 02:45:39;;;;;;;;;;;;;;;-142.25;100.00;58004.16;4931263;29;20239;-64
2023/04/03 02:48:05;;;;;;;;;;;;;;;-142.25;100.00;58004.16;4923641;28;19930;-65
2023/04/03 02:50:31;;;;;;;;;;;;;;;-142.25;100.00;58004.16;4918045;29;20008;-63
2023/04/03 02:52:57;;;;;;;;;;;;;;;-142.25;100.00;58004.16;4915395;29;19931;-64
2023/04/03 02:55:22;;;;;;;;;;;;;;;-142.25;100.00;58004.16;4916123;29;19934;-64
2023/04/03 02:57:50;;;;;;;;;;;;;;;-142.25;100.00;58004.16;4923718;29;20012;-64
2023/04/03 03:00:16;;;;;;;;;;;;;;;-142.25;100.00;58004.16;4916415;29;20017;-63
2023/04/03 03:02:41;;;;;;;;;;;;;;;-142.25;100.00;58004.16;4927503;29;20663;-64
2023/04/03 03:05:07;;;;;;;;;;;;;;;-142.25;100.00;58004.16;4909913;29;20525;-64
2023/04/03 03:07:33;;;;;;;;;;;;;;;-142.25;100.00;58004.16;4918331;29;20281;-64
2023/04/03 03:09:58;;;;;;;;;;;;;;;-142.25;100.00;58004.16;4918126;29;20029;-65
2023/04/03 03:12:26;;;;;;;;;;;;;;;-142.25;100.00;58004.16;4926266;29;19926;-67
2023/04/03 03:14:51;;;;;;;;;;;;;;;-142.25;100.00;58004.16;4919061;29;19929;-66
2023/04/03 03:17:17;;;;;;;;;;;;;;;-142.25;100.00;58004.16;4918386;28;19986;-65
2023/04/03 03:19:43;;;;;;;;;;;;;;;-142.25;100.00;58004.16;4917208;29;20006;-64
2023/04/03 03:22:08;;;;;;;;;;;;;;;-142.25;100.00;58004.16;4931984;28;20022;-65
2023/04/03 03:24:34;;;;;;;;;;;;;;;-142.25;100.00;58004.16;4920400;29;20331;-64
2023/04/03 03:26:59;;;;;;;;;;;;;;;-142.25;100.00;58004.16;4915279;29;19952;-64
2023/04/03 03:29:25;;;;;;;;;;;;;;;-142.25;100.00;58004.16;4932661;29;19926;-64
2023/04/03 03:31:51;;;;;;;;;;;;;;;-142.25;100.00;58004.16;4917558;29;19941;-63
2023/04/03 03:34:16;;;;;;;;;;;;;;;-142.25;100.00;58004.16;4917923;29;20406;-64
2023/04/03 03:36:42;;;;;;;;;;;;;;;-142.25;100.00;58004.16;4931463;29;19954;-63
2023/04/03 03:39:08;;;;;;;;;;;;;;;-142.25;100.00;58004.16;4918060;29;20294;-63
2023/04/03 03:41:34;;;;;;;;;;;;;;;-142.25;100.00;58004.16;4919088;29;20365;-64
2023/04/03 03:44:00;;;;;;;;;;;;;;;-142.25;100.00;58004.16;4916381;29;20373;-64
2023/04/03 03:46:28;;;;;;;;;;;;;;;-142.25;100.00;58004.16;4932611;29;19923;-64
2023/04/03 03:48:53;;;;;;;;;;;;;;;-142.25;100.00;58004.16;4915897;29;19965;-64
2023/04/03 03:51:19;;;;;;;;;;;;;;;-142.25;100.00;58004.16;4916722;29;20388;-65
2023/04/03 03:53:45;;;;;;;;;;;;;;;-142.25;100.00;58004.16;4916263;29;20338;-64
2023/04/03 03:56:14;;;;;;;;;;;;;;;-142.25;100.00;58004.16;4931236;29;19923;-64
2023/04/03 03:58:40;;;;;;;;;;;;;;;-142.25;100.00;58004.16;4917826;29;19926;-64
2023/04/03 04:01:07;;;;;;;;;;;;;;;-142.25;100.00;58004.16;4931149;29;19934;-65
2023/04/03 04:03:38;;;;;;;;;;;;;;;-142.25;100.00;58004.16;4923617;29;19927;-64
2023/04/03 04:06:04;;;;;;;;;;;;;;;-142.25;100.00;58004.16;4931836;29;19923;-65
2023/04/03 04:08:29;;;;;;;;;;;;;;;-142.25;100.00;58004.16;4930767;29;20449;-65
2023/04/03 04:10:55;;;;;;;;;;;;;;;-142.25;100.00;58004.16;4916702;29;20309;-65
2023/04/03 04:13:21;;;;;;;;;;;;;;;-142.25;100.00;58004.16;4932022;28;19962;-64
2023/04/03 04:15:47;;;;;;;;;;;;;;;-142.25;100.00;58004.16;4932405;29;19977;-64
2023/04/03 04:18:13;;;;;;;;;;;;;;;-142.25;100.00;58004.16;4916302;29;19923;-64
2023/04/03 04:20:41;;;;;;;;;;;;;;;-142.25;100.00;58004.16;4916645;29;19973;-64
2023/04/03 04:23:07;;;;;;;;;;;;;;;-142.25;100.00;58004.16;4916821;29;20516;-63
2023/04/03 04:25:34;;;;;;;;;;;;;;;-142.25;100.00;58004.16;4914996;29;19927;-64
2023/04/03 04:28:00;;;;;;;;;;;;;;;-142.25;100.00;58004.16;4923827;29;20477;-65
2023/04/03 04:30:27;;;;;;;;;;;;;;;-142.25;100.00;58004.16;4915241;29;20302;-64
2023/04/03 04:32:55;;;;;;;;;;;;;;;-142.25;100.00;58004.16;4922981;29;20024;-65
2023/04/03 04:35:20;;;;;;;;;;;;;;;-142.25;100.00;58004.16;4929833;29;19927;-64
2023/04/03 04:37:48;;;;;;;;;;;;;;;-142.25;100.00;58004.16;4930869;28;20335;-64
2023/04/03 04:40:14;;;;;;;;;;;;;;;-142.25;100.00;58004.16;4913832;29;19927;-64
2023/04/03 04:42:40;;;;;;;;;;;;;;;-142.25;100.00;58004.16;4915938;29;19927;-65
2023/04/03 04:45:07;;;;;;;;;;;;;;;-142.25;100.00;58004.16;4929502;28;19923;-64
2023/04/03 04:47:33;;;;;;;;;;;;;;;-142.25;100.00;58004.16;4913664;29;19927;-64
2023/04/03 04:49:58;;;;;;;;;;;;;;;-142.25;100.00;58004.16;4928263;29;19986;-64
2023/04/03 04:52:24;;;;;;;;;;;;;;;-142.25;100.00;58004.16;4927501;29;19927;-64
2023/04/03 04:54:50;;;;;;;;;;;;;;;-142.25;100.00;58004.16;4913527;29;19923;-67
2023/04/03 04:57:16;;;;;;;;;;;;;;;-142.25;100.00;58004.16;4927950;29;20412;-64
2023/04/03 04:59:41;;;;;;;;;;;;;;;-142.25;100.00;58004.16;4913008;29;20002;-64
2023/04/03 05:02:07;;;;;;;;;;;;;;;-142.25;100.00;58004.16;4919568;29;19931;-63
2023/04/03 05:04:35;;;;;;;;;;;;;;;-142.25;100.00;58004.16;4933947;29;20858;-64
2023/04/03 05:07:07;;;;;;;;;;;;;;;-142.25;100.00;58004.16;4917403;29;20453;-67
2023/04/03 05:09:34;;;;;;;;;;;;;;;-142.25;100.00;58004.16;4929454;29;20373;-68
2023/04/03 05:12:00;;;;;;;;;;;;;;;-142.25;100.00;58004.16;4913646;29;20017;-64
2023/04/03 05:14:30;;;;;;;;;;;;;;;-142.25;100.00;58004.16;4915947;29;19922;-66
2023/04/03 05:17:00;;;;;;;;;;;;;;;-142.25;100.00;58004.16;4908784;29;19979;-65
2023/04/03 05:19:28;;;;;;;;;;;;;;;-142.25;100.00;58004.16;4923872;29;20405;-64
2023/04/03 05:21:54;;;;;;;;;;;;;;;-142.25;100.00;58004.16;4911553;29;20021;-65
2023/04/03 05:24:20;;;;;;;;;;;;;;;-142.25;100.00;58004.16;4927630;29;20070;-64
2023/04/03 05:26:46;;;;;;;;;;;;;;;-142.25;100.00;58004.16;4910814;29;19923;-64
2023/04/03 05:29:13;;;;;;;;;;;;;;;-142.25;100.00;58004.16;4913431;29;20378;-63
2023/04/03 05:31:40;;;;;;;;;;;;;;;-142.25;100.00;58004.16;4920809;29;20019;-64
2023/04/03 05:34:08;;;;;;;;;;;;;;;-142.25;100.00;58004.16;4911622;29;19926;-64
2023/04/03 05:36:35;;;;;;;;;;;;;;;-142.25;100.00;58004.16;4920808;29;19981;-63
2023/04/03 05:39:04;;;;;;;;;;;;;;;-142.25;100.00;58004.16;4904620;29;19926;-64
2023/04/03 05:41:30;;;;;;;;;;;;;;;-142.25;100.00;58004.16;4927945;29;20425;-65
2023/04/03 05:43:56;;;;;;;;;;;;;;;-142.25;100.00;58004.16;4919941;29;19927;-61
2023/04/03 05:46:24;;;;;;;;;;;;;;;-142.25;100.00;58004.16;4919918;29;20529;-65
2023/04/03 05:48:53;;;;;;;;;;;;;;;-142.25;100.00;58004.16;4915637;29;19926;-66
2023/04/03 05:51:23;;;;;;;;;;;;;;;-142.25;100.00;58004.16;4910012;29;19945;-67
2023/04/03 05:53:54;;;;;;;;;;;;;;;-142.25;100.00;58004.16;4908560;29;19978;-68
2023/04/03 05:56:20;;;;;;;;;;;;;;;-142.25;100.00;58004.16;4925896;29;19971;-67
2023/04/03 05:58:46;;;;;;;;;;;;;;;-142.25;100.00;58004.16;4912643;29;20360;-66
2023/04/03 06:01:12;;;;;;;;;;;;;;;-142.25;100.00;58004.16;4911960;29;20021;-67
2023/04/03 06:03:39;;;;;;;;;;;;;;;-142.25;100.00;58004.16;4911892;29;20065;-67
2023/04/03 06:06:05;;;;;;;;;;;;;;;-142.25;100.00;58004.16;4927664;28;19931;-67
2023/04/03 06:08:30;;;;;;;;;;;;;;;-142.25;100.00;58004.16;4927925;29;19926;-67
2023/04/03 06:10:57;;;;;;;;;;;;;;;-142.25;100.00;58004.16;4915360;28;19998;-69
2023/04/03 06:13:22;;;;;;;;;;;;;;;-142.25;100.00;58004.16;4910142;29;20262;-66
2023/04/03 06:15:50;;;;;;;;;;;;;;;-142.25;100.00;58004.16;4918428;29;19927;-67
2023/04/03 06:18:15;;;;;;;;;;;;;;;-142.25;100.00;58004.16;4913203;29;20313;-67
2023/04/03 06:20:41;;;;;;;;;;;;;;;-142.25;100.00;58004.16;4912548;29;20285;-67
2023/04/03 06:23:07;;;;;;;;;;;;;;;-142.25;100.00;58004.16;4913830;29;20358;-66
2023/04/03 06:25:33;;;;;;;;;;;;;;;-142.25;100.00;58004.16;4911657;29;19934;-67
2023/04/03 06:27:58;;;;;;;;;;;;;;;-142.25;100.00;58004.16;4912391;29;19923;-67
2023/04/03 06:30:24;;;;;;;;;;;;;;;-142.25;100.00;58004.16;4913101;29;20002;-67
2023/04/03 06:32:50;;;;;;;;;;;;;;;-142.25;100.00;58004.16;4913835;29;19923;-66
2023/04/03 06:35:15;;;;;;;;;;;;;;;-142.25;100.00;58004.16;4911590;29;19998;-66
2023/04/03 06:37:41;;;;;;;;;;;;;;;-142.25;100.00;58004.16;4911848;29;20266;-66
2023/04/03 06:40:07;;;;;;;;;;;;;;;-142.25;100.00;58004.16;4912487;29;19927;-66
2023/04/03 06:42:32;;;;;;;;;;;;;;;-142.25;100.00;58004.16;4912111;29;19946;-65
2023/04/03 06:45:07;;;;;;;;;;;;;;;-142.25;100.00;58004.16;4926129;29;19930;-68
2023/04/03 06:47:33;;;;;;;;;;;;;;;-142.25;100.00;58004.16;4912890;29;20011;-68
2023/04/03 06:49:59;;;;;;;;;;;;;;;-142.25;100.00;58004.16;4914696;29;19958;-66
2023/04/03 06:52:24;;;;;;;;;;;;;;;-142.25;100.00;58004.16;4913570;29;20403;-66
2023/04/03 06:54:56;;;;;;;;;;;;;;;-142.25;100.00;58004.16;4912097;29;20541;-67
2023/04/03 06:57:22;;;;;;;;;;;;;;;-142.25;100.00;58004.16;4912619;29;20311;-65
2023/04/03 06:59:48;;;;;;;;;;;;;;;-142.25;100.00;58004.16;4914087;29;19923;-67
2023/04/03 07:02:13;;;;;;;;;;;;;;;-142.25;100.00;58004.16;4914867;29;19927;-66
2023/04/03 07:04:39;;;;;;;;;;;;;;;-142.25;100.00;58004.16;4913279;29;20393;-64
2023/04/03 07:07:04;;;;;;;;;;;;;;;-142.25;100.00;58004.16;4912799;29;19927;-66
2023/04/03 07:09:30;;;;;;;;;;;;;;;-142.25;100.00;58004.16;4913855;29;19927;-68
2023/04/03 07:11:55;;;;;;;;;;;;;;;-142.25;100.00;58004.16;4912814;28;19931;-67
2023/04/03 07:14:21;;;;;;;;;;;;;;;-142.25;100.00;58004.16;4912742;28;19926;-66
2023/04/03 07:16:46;;;;;;;;;;;;;;;-142.25;100.00;58004.16;4914445;29;19922;-67
2023/04/03 07:19:12;;;;;;;;;;;;;;;-142.25;100.00;58004.16;4916074;29;19950;-69
2023/04/03 07:21:38;;;;;;;;;;;;;;;-142.25;100.00;58004.16;4917108;29;20180;-67
2023/04/03 07:24:03;;;;;;;;;;;;;;;-142.25;100.00;58004.16;4915557;29;20061;-67
2023/04/03 07:26:28;;;;;;;;;;;;;;;-142.25;100.00;58004.16;4913654;29;19926;-68
2023/04/03 07:28:54;;;;;;;;;;;;;;;-142.25;100.00;58004.16;4913693;29;19929;-67
2023/04/03 07:31:20;;;;;;;;;;;;;;;-142.25;100.00;58004.16;4914692;29;20374;-64
2023/04/03 07:33:45;;;;;;;;;;;;;;;-142.25;100.00;58004.16;4915740;29;20037;-64
2023/04/03 07:36:15;;;;;;;;;;;;;;;-142.25;100.00;58004.16;4913981;29;20022;-64
2023/04/03 07:38:41;;;;;;;;;;;;;;;-142.25;100.00;58004.16;4915734;29;19926;-65
2023/04/03 07:41:10;;;;;;;;;;;;;;;-142.25;100.00;58004.16;4914913;29;20503;-68
2023/04/03 07:43:36;;;;;;;;;;;;;;;-142.25;100.00;58004.16;4914007;29;20516;-66
2023/04/03 07:46:04;;;;;;;;;;;;;;;-142.25;100.00;58004.16;4914318;29;19926;-67
2023/04/03 07:48:29;;;;;;;;;;;;;;;-142.25;100.00;58004.16;4916286;29;19919;-68
2023/04/03 07:50:59;;;;;;;;;;;;;;;-142.25;100.00;58004.16;4913272;28;19931;-68
2023/04/03 07:53:25;;;;;;;;;;;;;;;-142.25;100.00;58004.16;4910975;29;20230;-66
2023/04/03 07:55:55;;;;;;;;;;;;;;;-142.25;100.00;58004.16;4912645;29;19926;-67
2023/04/03 07:58:20;;;;;;;;;;;;;;;-142.25;100.00;58004.16;4911125;29;19927;-68
2023/04/03 08:00:46;;;;;;;;;;;;;;;-142.25;100.00;58004.16;4917391;29;19934;-69
2023/04/03 08:03:12;;;;;;;;;;;;;;;-142.25;100.00;58004.16;4915566;28;20342;-67
2023/04/03 08:05:38;;;;;;;;;;;;;;;-142.25;100.00;58004.16;4913299;29;19927;-67
2023/04/03 08:08:05;;;;;;;;;;;;;;;-142.25;100.00;58004.16;4914478;29;19931;-68
2023/04/03 08:10:31;;;;;;;;;;;;;;;-142.25;100.00;58004.16;4917922;29;19933;-69
2023/04/03 08:12:56;;;;;;;;;;;;;;;-142.25;100.00;58004.16;4917834;29;19953;-70
2023/04/03 08:15:22;;;;;;;;;;;;;;;-142.25;100.00;58004.16;4908582;29;19933;-60
2023/04/03 08:17:47;;;;;;;;;;;;;;;-142.25;100.00;58004.16;4912829;29;19918;-71
2023/04/03 08:20:13;;;;;;;;;;;;;;;-142.25;100.00;58004.16;4911846;29;19926;-68
2023/04/03 08:22:39;;;;;;;;;;;;;;;-142.25;100.00;58004.16;4916150;29;19931;-71
2023/04/03 08:25:05;;;;;;;;;;;;;;;-142.25;100.00;58004.16;4912729;29;19935;-72
2023/04/03 08:27:30;;;;;;;;;;;;;;;-142.25;100.00;58004.16;4909403;29;19923;-72
2023/04/03 08:29:56;;;;;;;;;;;;;;;-142.25;100.00;58004.16;4913655;29;19930;-71
2023/04/03 08:32:23;;;;;;;;;;;;;;;-142.25;100.00;58004.16;4911753;29;19927;-71
2023/04/03 08:34:48;;;;;;;;;;;;;;;-142.25;100.00;58004.16;4912106;29;19935;-73
2023/04/03 08:37:13;;;;;;;;;;;;;;;-142.25;100.00;58004.16;4911805;29;20033;-73
2023/04/03 08:39:39;;;;;;;;;;;;;;;-142.25;100.00;58004.16;4910631;29;19926;-71
2023/04/03 08:42:27;;;;;;;;;;;;;;;-142.25;100.00;58004.16;4913962;29;19931;-73
2023/04/03 08:45:00;;;;;;;;;;;;;;;-142.25;100.00;58004.16;4912616;29;19927;-61
2023/04/03 08:47:30;;;;;;;;;;;;;;;-142.25;100.00;58004.16;4911729;29;20337;-68
2023/04/03 08:50:12;;;;;;;;;;;;;;;-142.25;100.00;58004.16;4912226;29;19926;-68
2023/04/03 08:52:39;;;;;;;;;;;;;;;-142.25;100.00;58004.16;4926906;29;20509;-68
2023/04/03 08:55:07;;;;;;;;;;;;;;;-142.25;100.00;58004.16;4913797;28;19922;-66
2023/04/03 08:57:41;;;;;;;;;;;;;;;-142.25;100.00;58004.16;4919832;29;19929;-66
2023/04/03 09:00:13;;;;;;;;;;;;;;;-142.25;100.00;58004.16;4915239;29;20476;-67
2023/04/03 09:02:52;;;;;;;;;;;;;;;-142.25;100.00;58004.16;4913401;29;19957;-67
2023/04/03 09:05:19;;;;;;;;;;;;;;;-142.25;100.00;58004.16;4913090;29;19973;-67
2023/04/03 09:07:53;;;;;;;;;;;;;;;-142.25;100.00;58004.16;4912401;29;19935;-69
2023/04/03 09:10:22;;;;;;;;;;;;;;;-142.25;100.00;58004.16;4913134;29;19923;-70
2023/04/03 09:12:53;;;;;;;;;;;;;;;-142.25;100.00;58004.16;4912713;28;20033;-68
2023/04/03 09:15:20;;;;;;;;;;;;;;;-142.25;100.00;58004.16;4913429;29;19942;-68
2023/04/03 09:17:59;;;;;;;;;;;;;;;-142.25;100.00;58004.16;4910310;29;20290;-70
2023/04/03 09:20:37;;;;;;;;;;;;;;;-142.25;100.00;58004.16;4908627;29;20007;-68
2023/04/03 09:23:10;;;;;;;;;;;;;;;-142.25;100.00;58004.16;4918214;28;19923;-70
2023/04/03 09:25:37;;;;;;;;;;;;;;;-142.25;100.00;58004.16;4917401;29;20697;-68
2023/04/03 09:28:03;;;;;;;;;;;;;;;-142.25;100.00;58004.16;4913768;29;20009;-69
2023/04/03 09:30:29;;;;;;;;;;;;;;;-142.25;100.00;58004.16;4915717;29;19922;-70
2023/04/03 09:32:56;;;;;;;;;;;;;;;-142.25;100.00;58004.16;4914694;29;19977;-69
2023/04/03 09:35:23;;;;;;;;;;;;;;;-142.25;100.00;58004.16;4910331;29;19953;-69
2023/04/03 09:38:12;;;;;;;;;;;;;;;-142.25;100.00;58004.16;4912385;29;19927;-69
2023/04/03 09:40:39;;;;;;;;;;;;;;;-142.25;100.00;58004.16;4913871;29;19945;-68
2023/04/03 09:43:16;;;;;;;;;;;;;;;-142.25;100.00;58004.16;4913053;29;19931;-71
2023/04/03 09:45:43;;;;;;;;;;;;;;;-142.25;100.00;58004.16;4918354;28;19996;-72
2023/04/03 09:48:14;;;;;;;;;;;;;;;-142.25;100.00;58004.16;4912255;29;19923;-73
2023/04/03 09:50:59;;;;;;;;;;;;;;;-142.25;100.00;58004.16;4913106;29;19978;-72
2023/04/03 09:53:27;;;;;;;;;;;;;;;-142.25;100.00;58004.16;4915377;29;20251;-72
2023/04/03 09:55:52;;;;;;;;;;;;;;;-142.25;100.00;58004.16;4915300;29;20006;-70
2023/04/03 09:58:25;;;;;;;;;;;;;;;-142.25;100.00;58004.16;4914552;29;19922;-72
2023/04/03 10:00:55;;;;;;;;;;;;;;;-142.25;100.00;58004.16;4910754;29;19954;-71
2023/04/03 10:03:32;;;;;;;;;;;;;;;-142.25;100.00;58004.16;4910347;29;19923;-71
2023/04/03 10:05:58;;;;;;;;;;;;;;;-142.25;100.00;58004.16;4912878;29;19931;-70
2023/04/03 10:08:30;;;;;;;;;;;;;;;-142.25;100.00;58004.16;4913244;29;19936;-72
2023/04/03 10:11:09;;;;;;;;;;;;;;;-142.25;100.00;58004.16;4911858;29;20418;-70
2023/04/03 10:13:35;;;;;;;;;;;;;;;-142.25;100.00;58004.16;4911610;29;20306;-71
2023/04/03 10:16:07;;;;;;;;;;;;;;;-142.25;100.00;58004.16;4912736;29;20032;-71
2023/04/03 10:18:36;;;;;;;;;;;;;;;-142.25;100.00;58004.16;4913239;29;20382;-69
2023/04/03 10:21:09;;;;;;;;;;;;;;;-142.25;100.00;58004.16;4913812;28;20369;-70
2023/04/03 10:23:35;;;;;;;;;;;;;;;-142.25;100.00;58004.16;4913151;29;20066;-71
2023/04/03 10:26:01;;;;;;;;;;;;;;;-142.25;100.00;58004.16;4911940;29;19922;-71
2023/04/03 10:28:26;;;;;;;;;;;;;;;-142.25;100.00;58004.16;4925549;29;20433;-72
2023/04/03 10:31:06;;;;;;;;;;;;;;;-142.25;100.00;58004.16;4915638;29;20339;-72
2023/04/03 10:33:47;;;;;;;;;;;;;;;-142.25;100.00;58004.16;4911628;29;19952;-71
2023/04/03 10:36:27;;;;;;;;;;;;;;;-142.25;100.00;58004.16;4911305;29;19923;-71
2023/04/03 10:39:03;;;;;;;;;;;;;;;-142.25;100.00;58004.16;4913050;29;19934;-70
2023/04/03 10:41:35;;;;;;;;;;;;;;;-142.25;100.00;58004.16;4910365;28;20134;-68
2023/04/03 10:44:09;;;;;;;;;;;;;;;-142.25;100.00;58004.16;4910688;29;19929;-70
2023/04/03 10:46:35;;;;;;;;;;;;;;;-142.25;100.00;58004.16;4911123;29;19922;-69
2023/04/03 10:49:12;;;;;;;;;;;;;;;-142.25;100.00;58004.16;4924547;28;20362;-69
2023/04/03 10:51:37;;;;;;;;;;;;;;;-142.25;100.00;58004.16;4913620;29;19982;-61
2023/04/03 10:54:21;;;;;;;;;;;;;;;-142.25;100.00;58004.16;4916113;29;20043;-71
2023/04/03 10:56:47;;;;;;;;;;;;;;;-142.25;100.00;58004.16;4915423;29;19919;-70
2023/04/03 10:59:20;;;;;;;;;;;;;;;-142.25;100.00;58004.16;4914747;29;20389;-69
2023/04/03 11:01:52;;;;;;;;;;;;;;;-142.25;100.00;58004.16;4915885;29;19935;-71
2023/04/03 11:04:19;;;;;;;;;;;;;;;-142.25;100.00;58004.16;4914989;29;20049;-71
2023/04/03 11:06:48;;;;;;;;;;;;;;;-142.25;100.00;58004.16;4916110;29;19934;-70
2023/04/03 11:09:16;;;;;;;;;;;;;;;-142.25;100.00;58004.16;4912457;29;20010;-70
2023/04/03 11:11:42;;;;;;;;;;;;;;;-142.25;100.00;58004.16;4913016;29;19923;-70
2023/04/03 11:14:16;;;;;;;;;;;;;;;-142.25;100.00;58004.16;4913657;29;19926;-70
2023/04/03 11:16:50;;;;;;;;;;;;;;;-142.25;100.00;58004.16;4916147;29;20006;-71
2023/04/03 11:19:38;;;;;;;;;;;;;;;-142.25;100.00;58004.16;4922151;29;19968;-66
2023/04/03 11:22:10;;;;;;;;;;;;;;;-142.25;100.00;58004.16;4919818;29;19926;-67
2023/04/03 11:24:39;;;;;;;;;;;;;;;-142.25;100.00;58004.16;4917700;29;19927;-68
2023/04/03 11:27:05;;;;;;;;;;;;;;;-142.25;100.00;58004.16;4915957;29;20377;-68
2023/04/03 11:29:36;;;;;;;;;;;;;;;-142.25;100.00;58004.16;4914434;29;20194;-68
2023/04/03 11:32:20;;;;;;;;;;;;;;;-142.25;100.00;58004.16;4915259;29;19923;-68
2023/04/03 11:34:59;;;;;;;;;;;;;;;-142.25;100.00;58004.16;4913139;29;19927;-67
2023/04/03 11:37:39;;;;;;;;;;;;;;;-142.25;100.00;58004.16;4909434;29;19942;-66
2023/04/03 11:40:19;;;;;;;;;;;;;;;-142.25;100.00;58004.16;4902074;29;20243;-66
2023/04/03 11:42:49;;;;;;;;;;;;;;;-142.25;100.00;58004.16;4913145;29;20413;-67
2023/04/03 11:45:26;;;;;;;;;;;;;;;-142.25;100.00;58004.16;4914243;28;20002;-68
2023/04/03 11:47:52;;;;;;;;;;;;;;;-142.25;100.00;58004.16;4914389;29;19930;-69
2023/04/03 11:50:30;;;;;;;;;;;;;;;-142.25;100.00;58004.16;4926655;29;19923;-68
2023/04/03 11:53:10;;;;;;;;;;;;;;;-142.25;100.00;58004.16;4915060;29;19927;-70
2023/04/03 11:55:52;;;;;;;;;;;;;;;-142.25;100.00;58004.16;4914811;29;19982;-68
2023/04/03 11:58:23;;;;;;;;;;;;;;;-142.25;100.00;58004.16;4915985;29;19923;-68
2023/04/03 12:00:56;;;;;;;;;;;;;;;-142.25;100.00;58004.16;4914087;29;20794;-68
2023/04/03 12:03:25;;;;;;;;;;;;;;;-142.25;100.00;58004.16;4911952;29;20551;-68
2023/04/03 12:05:53;;;;;;;;;;;;;;;-142.25;100.00;58004.16;4914893;29;19923;-70
2023/04/03 12:08:26;;;;;;;;;;;;;;;-142.25;100.00;58004.16;4894024;29;20350;-69
2023/04/03 12:11:10;;;;;;;;;;;;;;;-142.25;100.00;58004.16;4912950;29;19923;-69
2023/04/03 12:13:39;;;;;;;;;;;;;;;-142.25;100.00;58004.16;4913085;29;20267;-69
2023/04/03 12:16:06;;;;;;;;;;;;;;;-142.25;100.00;58004.16;4915622;29;19958;-69
2023/04/03 12:18:53;;;;;;;;;;;;;;;-142.25;100.00;58004.16;4914482;29;20426;-69
2023/04/03 12:21:31;;;;;;;;;;;;;;;-142.25;100.00;58004.16;4913508;29;19982;-70
2023/04/03 12:24:09;;;;;;;;;;;;;;;-142.25;100.00;58004.16;4912023;29;20384;-69